MET: Información y Pronóstico Aeronáutico

///////////////////////////////////////////////////////////////////////////////////////////////////////////////////////////////////////////////////////////////////////////////////////////////////////////////////////////////////////////////

Member for

2 años
Enviado por meteorologia el Jue, 23/11/2017 - 11:39
4/8

4 DE AGOSTO 2020

INFORMACION METEOROLOGICA AERONAUTICA (METAR) 18:00 UTC

Aeropuerto AEROPARQUE J. NEWBERY

04 - 18:00  METAR SABE 041800Z 09005KT CAVOK 21/15 Q1018 NOSIG =

Aeropuerto BAHIA BLANCA

04 - 18:00  METAR SAZB 041800Z 14011KT CAVOK 14/09 Q1018 =

Aeropuerto BARILOCHE

04 - 18:00  METAR SAZS 041800Z 00000KT 9999 FEW040 08/00 Q1017 =

Aeropuerto CATAMARCA

04 - 18:00  METAR SANC 041800Z 36030KT 9999 NSC 32/07 Q1009 =

Aeropuerto CHAPELCO

04 - 18:00  METAR SAZY 041800Z 00000KT 9999 BKN028 10/04 Q1015 =

Aeropuerto COMODORO RIVADAVIA

04 - 18:00  METAR SAVC 041800Z 29011KT CAVOK 14/01 Q1017 =

Aeropuerto CORDOBA

04 - 18:01  METAR SACO 041800Z 06020KT 8000 NSC 31/11 Q1012 BECMG 36020KT 7000 NSC =

Aeropuerto CORRIENTES

04 - 18:00  METAR SARC 041800Z 05011KT 5000 NSC 32/25 Q1016 =

Aeropuerto EL CALAFATE

04 - 18:00  METAR SAWC 041800Z 32012KT 9999 FEW040 10/M01 Q1005 =

Aeropuerto EL PALOMAR

04 - 18:00  METAR SADP 041800Z 05008KT CAVOK 25/14 Q1018 =

Aeropuerto ESQUEL

04 - 18:00  METAR SAVE 041800Z 18001KT CAVOK 09/M03 Q1016 =

Aeropuerto EZEIZA

04 - 18:00  METAR SAEZ 041800Z 05009KT CAVOK 26/13 Q1018 NOSIG =

Aeropuerto FORMOSA

04 - 18:00  METAR SARF 041800Z 05012KT CAVOK 32/12 Q1017 =

Aeropuerto IGUAZU/CATARATAS

04 - 18:00  METAR SARI 041800Z 36007KT CAVOK 29/14 Q1022 =

Aeropuerto JUJUY

04 - 18:00  METAR SASJ 041800Z 05012KT CAVOK 29/10 Q1015 =

Aeropuerto LA RIOJA

04 - 18:00  METAR SANL 041800Z 18004KT CAVOK 28/11 Q1011 =

Aeropuerto MALARGUE

04 - 18:00  METAR SAMM 041800Z 32005KT CAVOK 16/00 Q1018 =

Aeropuerto MAR DEL PLATA

04 - 18:00  METAR SAZM 041800Z 02005KT CAVOK 22/14 Q1019 =

Aeropuerto MENDOZA

04 - 18:00  METAR SAME 041800Z 14009KT CAVOK 23/03 Q1014 =

Aeropuerto MORON

04 - 18:00  METAR SADM 041800Z 09007KT CAVOK 26/14 Q1017 =

Aeropuerto NEUQUEN

04 - 18:00  METAR SAZN 041800Z 05006KT CAVOK 16/02 Q1018 =

Aeropuerto PARANA

04 - 17:00  METAR SAAP 041700Z 02017KT 8000 NSC 28/11 Q1017 =

Aeropuerto POSADAS

04 - 18:00  METAR SARP 041800Z 02008KT CAVOK 29/14 Q1020 =

Aeropuerto PUERTO MADRYN

04 - 18:00  METAR SAVY 041800Z 32004KT CAVOK 14/M01 Q1019 =

Aeropuerto RECONQUISTA

04 - 18:00  METAR SATR 041800Z 02013KT 8000 NSC 33/12 Q1015 =

Aeropuerto RESISTENCIA

04 - 18:00  METAR SARE 041800Z 02010KT CAVOK 34/10 Q1016 =

Aeropuerto RIO CUARTO

04 - 18:00  METAR SAOC 041800Z 02021KT 8000 NSC 28/09 Q1012 =

Aeropuerto RIO GALLEGOS

04 - 18:00  METAR SAWG 041800Z 32008KT CAVOK 08/M00 Q1005 =

Aeropuerto RIO GRANDE

04 - 18:00  METAR SAWE 041800Z 34018KT CAVOK 04/02 Q1004 =

Aeropuerto ROSARIO

04 - 18:00  METAR SAAR 041800Z 36009KT CAVOK 30/11 Q1015 =

Aeropuerto SALTA

04 - 18:00  METAR SASA 041800Z 05007KT CAVOK 27/10 Q1017 =

Aeropuerto SAN FERNANDO

04 - 18:00  METAR SADF 041800Z 34008KT CAVOK 27/11 Q1017 =

Aeropuerto SAN JUAN

04 - 18:00  METAR SANU 041800Z 14011KT CAVOK 23/01 Q1014 =

Aeropuerto SAN LUIS

04 - 18:00  METAR SAOU 041800Z 32015KT CAVOK 28/10 Q1013 RMK ESTIMATED WIND =

Aeropuerto SAN RAFAEL

04 - 18:00  METAR SAMR 041800Z 14007KT CAVOK 20/04 Q1015 =

Aeropuerto SANTA ROSA

04 - 18:00  METAR SAZR 041800Z 14008KT 7000 NSC 21/13 Q1014 =

Aeropuerto SANTIAGO DEL ESTERO

04 - 18:00  METAR SANE 041800Z 02015G34KT 8000 DU NSC 34/09 Q1010 =

Aeropuerto SAUCE VIEJO

04 - 18:00  METAR SAAV 041800Z 05015KT CAVOK 31/13 Q1014 =

Aeropuerto TANDIL

04 - 18:00  METAR SAZT 041800Z 36011KT CAVOK 24/12 Q1018 =

Aeropuerto TERMAS DE RIO HONDO

04 - 18:00  METAR SANR 041800Z 36020G25KT 5000 DU NSC 33/08 Q1010 =

Aeropuerto TRELEW

04 - 18:00  METAR SAVT 041800Z 23004KT CAVOK 14/M04 Q1020 =

Aeropuerto TUCUMAN

04 - 18:00  METAR SANT 041800Z 18004KT 4000 FU NSC 32/13 Q1011 =

Aeropuerto USHUAIA

04 - 18:00  METAR SAWH 041800Z 36004KT 9999 FEW045 11/M02 Q1000 =

Aeropuerto VIEDMA

04 - 18:00  METAR SAVV 041800Z 14010KT 120V180 CAVOK 13/03 Q1021 =

Aeropuerto VILLA REYNOLDS

04 - 18:00  METAR SAOR 041800Z 32008KT 9999 FEW035 BKN200 30/09 Q1012 =

 PRONOSTICO DE AERODROMO (TAF) 17:00 UTC

Estación AEROPARQUE J. NEWBERY

04 - 17:00  TAF SABE 041700Z 0418/0518 07010KT CAVOK TX24/0518Z TN16/0510Z BECMG 0502/0504 02010KT PROB30 TEMPO 0507/0511 7000 NSC BECMG 0512/0515 36015KT =

Estación BAHIA BLANCA

04 - 17:00  TAF SAZB 041700Z 0418/0518 14010KT CAVOK TX17/0418Z TN10/0510Z BECMG 0421/0500 11010KT 9999 SCT020 BKN040 BECMG 0501/0503 8000 RA SCT015 BKN030 BECMG 0507/0509 36005KT 6000 TSRA SCT010 BKN020 FEW045CB TEMPO 0508/0513 2000 +TSRA BKN010 FEW040CB BECMG 0515/0517 27010KT 9999 NSW SCT020 BKN030 =

Estación BARILOCHE

04 - 17:00  TAF SAZS 041700Z 0418/0518 15010KT CAVOK TX07/0418Z TN00/0512Z BECMG 0419/0421 9999 SCT010 BKN030 BECMG 0422/0501 VRB03KT 6000 RASN BKN010 BKN025 BECMG 0504/0507 29010KT 8000 -RA BKN008 BKN020 BECMG 0513/0516 29015KT BKN010 BKN030 =

Estación CATAMARCA

04 - 17:00  TAF SANC 041700Z 0418/0518 36020KT CAVOK TX32/0518Z TN18/0510Z BECMG 0503/0506 02010KT =

Estación CHAPELCO

04 - 17:00  TAF SAZY 041700Z 0418/0518 05005KT 9999 BKN025 TX10/0418Z TN00/0510Z BECMG 0421/0423 9999 BKN010 OVC025 TEMPO 0423/0505 8000 DZ OVC010 BECMG 0505/0507 25010G20KT 6000 RASN SCT008 BKN020 TEMPO 0511/0517 25015G35KT 3000 +RASN OVC008 =

Estación COMODORO RIVADAVIA

04 - 17:00  TAF SAVC 041700Z 0418/0518 27015KT CAVOK TX12/0418Z TN05/0512Z PROB30 TEMPO 0418/0422 05010KT BECMG 0500/0502 32012KT =

Estación CORDOBA

04 - 17:00  SACO 041700

Estación CORRIENTES

04 - 17:00  TAF SARC 041700Z 0418/0518 02010KT 5000 FU NSC TX33/0419Z TN17/0510Z =

Estación EL CALAFATE

04 - 17:00  TAF SAWC 041700Z 0418/0518 32018KT 9999 FEW030 SCT100 TX05/0418Z TN01/0509Z BECMG 0500/0502 SCT030 BKN070 BECMG 0513/0515 -RA BKN030 BKN050 =

Estación EL PALOMAR

04 - 17:00  TAF SADP 041700Z 0418/0518 05010KT CAVOK TX27/0518Z TN15/0509Z PROB30 TEMPO 0505/0512 5000 BR NSC BECMG 0514/0516 36015G25KT 9999 SCT040 =

Estación ESQUEL

04 - 17:00  TAF SAVE 041700Z 0418/0518 VRB03KT CAVOK TX06/0518Z TNM02/0512Z BECMG 0504/0506 9999 SCT030 BECMG 0514/0516 29008KT 6000 -RASN BKN020 SCT050 =

Estación EZEIZA

04 - 17:00  TAF SAEZ 041700Z 0418/0518 03010KT CAVOK TX27/0518Z TN14/0509Z PROB30 TEMPO 0505/0512 5000 BR NSC BECMG 0514/0516 36015G25KT 9999 SCT040 =

Estación FORMOSA

04 - 17:00  TAF SARF 041700Z 0418/0518 05015KT CAVOK TX34/0419Z TN16/0510Z =

Estación IGUAZU/CATARATAS

04 - 17:00  TAF SARI 041700Z 0418/0518 05005KT CAVOK TX30/0419Z TN16/0510Z =

Estación JUJUY

04 - 17:00  TAF SASJ 041700Z 0418/0518 02015KT 7000 NSC TX26/0518Z TN14/0510Z BECMG 0500/0502 27005KT BECMG 0515/0518 02015KT =

Estación LA RIOJA

04 - 17:00  TAF SANL 041700Z 0418/0518 20005KT CAVOK TX31/0518Z TN16/0510Z BECMG 0500/0503 25010KT =

Estación MAR DEL PLATA

04 - 17:00  TAF SAZM 041700Z 0418/0518 34010KT CAVOK TX20/0518Z TN14/0510Z BECMG 0514/0517 32010G20KT 9999 FEW040TCU BKN060 TEMPO 0516/0518 5000 TSRA FEW050CB BKN050 =

Estación MENDOZA

04 - 17:00  TAF SAME 041700Z 0418/0518 16010KT CAVOK TX24/0420Z TN08/0511Z BECMG 0419/0421 VRB03KT =

Estación NEUQUEN

04 - 17:00  TAF SAZN 041700Z 0418/0518 09005KT CAVOK TX18/0419Z TN04/0511Z BECMG 0502/0506 15005KT 9999 FEW030 BKN080 TEMPO 0507/0512 VRB05KT 6000 SHRA SCT030 BKN040 BECMG 0513/0515 25020KT 9999 SCT030 BECMG 0516/0518 25020G30KT =

Estación PARANA

04 - 17:00  TAF SAAP 041700Z 0418/0518 36015KT 8000 NSC TX31/0518Z TN16/0510Z BECMG 0419/0421 05010KT CAVOK BECMG 0512/0514 36015G25KT =

Estación POSADAS

04 - 17:00  TAF SARP 041700Z 0418/0518 05010KT CAVOK TX31/0419Z TN16/0510Z =

Estación RESISTENCIA

04 - 17:00  TAF SARE 041700Z 0418/0518 05010KT 7000 NSC TX34/0419Z TN17/0510Z =

Estación RIO CUARTO

04 - 17:00  TAF SAOC 041700Z 0418/0518 36020G30KT 7000 NSC TX26/0518Z TN14/0510Z BECMG 0500/0503 36010KT CAVOK BECMG 0512/0515 23020KT 6000 NSC =

Estación RIO GALLEGOS

04 - 17:00  TAF SAWG 041700Z 0418/0518 34015KT 9999 SCT030 SCT080 TX08/0418Z TN01/0512Z BECMG 0418/0420 36010KT CAVOK BECMG 0516/0518 23015KT BKN030 =

Estación RIO GRANDE

04 - 17:00  TAF SAWE 041700Z 0418/0518 34018G28KT CAVOK TX07/0418Z TN02/0512Z BECMG 0421/0423 36010KT BECMG 0513/0515 BKN030 =

Estación ROSARIO

04 - 17:00  TAF SAAR 041700Z 0418/0518 03010KT CAVOK TX32/0519Z TN17/0510Z TEMPO 0420/0501 08010KT 9999 FEW035 BECMG 0512/0515 35015KT =

Estación SALTA

04 - 17:00  TAF SASA 041700Z 0418/0518 02015KT CAVOK TX28/0518Z TN12/0510Z BECMG 0500/0503 23005KT BECMG 0515/0518 02015KT =

Estación SAN FERNANDO

04 - 17:00  TAF SADF 041700Z 0418/0518 36010G20KT CAVOK TX28/0518Z TN15/0509Z TEMPO 0422/0504 07005KT =

Estación SAN JUAN

04 - 17:00  TAF SANU 041700Z 0418/0518 16010KT CAVOK TX24/0420Z TN07/0511Z BECMG 0501/0503 VRB03KT BECMG 0512/0514 16010KT =

Estación SAN LUIS

04 - 17:00  TAF SAOU 041700Z 0418/0518 36010KT CAVOK TX27/0419Z TN08/0509Z BECMG 0420/0422 VRB03KT BECMG 0515/0517 14010KT =

Estación SAN RAFAEL

04 - 17:00  TAF SAMR 041700Z 0418/0518 16010KT CAVOK TX20/0420Z TN06/0511Z BECMG 0421/0423 VRB03KT BECMG 0515/0517 11010KT =

Estación SANTA ROSA

04 - 17:00  TAF SAZR 041700Z 0418/0518 14008KT 7000 NSC TX21/0418Z TN09/0510Z BECMG 0419/0421 CAVOK BECMG 0503/0506 19010KT 8000 RADZ SCT030 BKN050 TEMPO 0508/0513 6000 SHRA SCT020 BKN045 FEW045TCU BECMG 0514/0517 22015G30KT 9999 NSW SCT040 =

Estación SANTIAGO DEL ESTERO

04 - 17:00  TAF SANE 041700Z 0418/0518 05020G30KT 7000 NSC TX33/0518Z TN19/0510Z BECMG 0500/0503 05010KT CAVOK BECMG 0515/0518 36020KT 6000 NSC =

Estación SAUCE VIEJO

04 - 17:00  TAF SAAV 041700Z 0418/0518 05015KT CAVOK TX32/0518Z TN17/0510Z BECMG 0419/0421 07010KT BECMG 0512/0514 36015G25KT =

Estación TERMAS DE RIO HONDO

04 - 17:00  TAF SANR 041700Z 0418/0518 NIL =

Estación TRELEW

04 - 17:00  TAF SAVT 041700Z 0418/0518 23006KT CAVOK TX14/0418Z TN05/0512Z BECMG 0419/0421 05007KT BECMG 0500/0502 02015KT BKN040 BECMG 0516/0518 29018KT =

Estación TUCUMAN

04 - 17:00  TAF SANT 041700Z 0418/0518 09005KT 4000 FU NSC TX30/0518Z TN16/0510Z BECMG 0414/0417 VRB03KT 6000 NSC BECMG 0512/0515 23005KT 4000 FU NSC =

Estación USHUAIA

04 - 17:00  TAF SAWH 041700Z 0418/0518 32010KT 9999 SCT030 SCT090 TX07/0506Z TN00/0512Z BECMG 0504/0506 34015G25KT BECMG 0510/0512 VRB05KT =

Estación VIEDMA

04 - 17:00  TAF SAVV 041700Z 0418/0518 14010KT CAVOK TX15/0418Z TN07/0512Z BECMG 0417/0419 13010KT BECMG 0503/0505 08010KT 7000 DZ BKN030 BECMG 0516/0518 29010KT CAVOK =